createdAt,value
2019-04-29T00:00:49.812Z,77.54
2019-04-29T00:03:18.233Z,77.19
2019-04-29T00:05:46.680Z,77.44
2019-04-29T00:08:15.104Z,77.34
2019-04-29T00:10:44.217Z,77.41
2019-04-29T00:13:13.547Z,77.22
2019-04-29T00:15:55.639Z,77.23
2019-04-29T00:18:28.533Z,77.08
2019-04-29T00:20:57.188Z,77.30
2019-04-29T00:23:25.799Z,77.27
2019-04-29T00:25:54.228Z,77.14
2019-04-29T00:28:22.652Z,76.77
2019-04-29T00:30:51.189Z,77.05
2019-04-29T00:33:19.689Z,76.79
2019-04-29T00:35:48.129Z,77.19
2019-04-29T00:38:34.464Z,77.05
2019-04-29T00:41:20.787Z,77.10
2019-04-29T00:43:59.927Z,77.08
2019-04-29T00:46:28.540Z,77.14
2019-04-29T00:48:56.960Z,77.17
2019-04-29T00:51:25.383Z,77.08
2019-04-29T00:53:55.464Z,77.24
2019-04-29T00:56:23.164Z,77.50
2019-04-29T00:58:51.582Z,75.09
2019-04-29T01:01:21.657Z,77.67
2019-04-29T01:03:50.079Z,77.81
2019-04-29T01:06:18.527Z,78.06
2019-04-29T01:08:46.969Z,78.33
2019-04-29T01:11:15.721Z,78.40
2019-04-29T01:13:44.273Z,78.41
2019-04-29T01:16:12.771Z,78.34
2019-04-29T01:18:41.995Z,78.44
2019-04-29T01:21:10.421Z,78.49
2019-04-29T01:23:38.846Z,78.57
2019-04-29T01:26:27.023Z,78.37
2019-04-29T01:28:57.345Z,78.36
2019-04-29T01:31:27.583Z,78.48
2019-04-29T01:33:57.645Z,78.57
2019-04-29T01:36:27.004Z,78.59
2019-04-29T01:38:57.022Z,76.39
2019-04-29T01:41:36.199Z,78.08
2019-04-29T01:44:09.120Z,78.31
2019-04-29T01:46:37.533Z,78.56
2019-04-29T01:49:05.973Z,78.75
2019-04-29T01:51:34.411Z,78.87
2019-04-29T01:54:02.841Z,78.92
2019-04-29T01:56:31.270Z,78.87
2019-04-29T01:58:59.766Z,78.89
2019-04-29T02:01:28.247Z,78.75
2019-04-29T02:03:56.760Z,78.79
2019-04-29T02:06:25.387Z,79.08
2019-04-29T02:08:55.185Z,78.79
2019-04-29T02:11:23.628Z,78.47
2019-04-29T02:13:52.215Z,78.16
2019-04-29T02:16:20.646Z,78.18
2019-04-29T02:18:49.166Z,78.25
2019-04-29T02:21:17.733Z,78.11
2019-04-29T02:23:50.715Z,77.79
2019-04-29T02:26:19.139Z,77.89
2019-04-29T02:28:47.569Z,77.81
2019-04-29T02:31:33.725Z,77.60
2019-04-29T02:34:02.169Z,77.73
2019-04-29T02:36:30.600Z,77.71
2019-04-29T02:39:00.933Z,77.63
2019-04-29T02:41:30.252Z,77.61
2019-04-29T02:44:00.286Z,75.54
2019-04-29T02:46:28.954Z,77.16
2019-04-29T02:48:57.390Z,77.31
2019-04-29T02:51:43.514Z,77.51
2019-04-29T02:54:12.755Z,77.63
2019-04-29T02:56:42.785Z,77.86
2019-04-29T02:59:12.854Z,77.85
2019-04-29T03:01:43.299Z,77.80
2019-04-29T03:04:21.523Z,77.60
2019-04-29T03:06:50.436Z,75.47
2019-04-29T03:09:19.504Z,77.28
2019-04-29T03:11:47.974Z,77.59
2019-04-29T03:14:16.501Z,77.75
2019-04-29T03:16:45.306Z,77.81
2019-04-29T03:19:21.562Z,77.69
2019-04-29T03:21:57.829Z,77.79
2019-04-29T03:24:26.250Z,77.71
2019-04-29T03:26:54.888Z,77.45
2019-04-29T03:29:23.384Z,77.59
2019-04-29T03:31:52.652Z,77.61
2019-04-29T03:34:21.135Z,77.69
2019-04-29T03:36:49.557Z,77.82
2019-04-29T03:39:17.986Z,77.37
2019-04-29T03:41:46.450Z,77.64
2019-04-29T03:44:14.947Z,77.80
2019-04-29T03:46:43.381Z,77.79
2019-04-29T03:49:11.808Z,77.79
2019-04-29T03:51:40.483Z,77.58
2019-04-29T03:54:10.683Z,77.41
2019-04-29T03:56:39.183Z,77.54
2019-04-29T03:59:07.684Z,77.23
2019-04-29T04:01:37.778Z,77.21
2019-04-29T04:04:07.838Z,77.20
2019-04-29T04:06:43.597Z,77.17
2019-04-29T04:09:22.432Z,77.35
2019-04-29T04:11:51.019Z,77.33
2019-04-29T04:14:19.447Z,77.32
2019-04-29T04:16:58.321Z,77.57
2019-04-29T04:19:28.394Z,77.68
2019-04-29T04:21:56.812Z,77.55
2019-04-29T04:24:25.242Z,77.66
2019-04-29T04:26:53.682Z,77.62
2019-04-29T04:29:22.162Z,77.96
2019-04-29T04:31:50.593Z,78.09
2019-04-29T04:34:19.041Z,78.17
2019-04-29T04:36:47.463Z,78.20
2019-04-29T04:39:16.216Z,78.30
2019-04-29T04:41:44.671Z,78.27
2019-04-29T04:44:13.083Z,78.62
2019-04-29T04:46:41.584Z,78.08
2019-04-29T04:49:10.772Z,78.41
2019-04-29T04:51:39.222Z,78.79
2019-04-29T04:54:07.638Z,78.86
2019-04-29T04:56:36.230Z,78.95
2019-04-29T04:59:04.657Z,78.79
2019-04-29T05:01:33.129Z,78.87
2019-04-29T05:04:01.556Z,78.78
2019-04-29T05:06:29.991Z,78.83
2019-04-29T05:08:58.420Z,79.00
2019-04-29T05:11:26.929Z,78.85
2019-04-29T05:13:55.362Z,78.83
2019-04-29T05:16:23.998Z,78.87
2019-04-29T05:18:52.438Z,78.82
2019-04-29T05:21:21.374Z,78.96
2019-04-29T05:23:49.904Z,78.75
2019-04-29T05:26:18.428Z,78.39
2019-04-29T05:28:46.854Z,78.92
2019-04-29T05:31:15.300Z,78.51
2019-04-29T05:33:43.859Z,78.63
2019-04-29T05:36:19.895Z,79.00
2019-04-29T05:38:49.977Z,78.99
2019-04-29T05:41:19.183Z,79.09
2019-04-29T05:43:58.671Z,78.97
2019-04-29T05:46:31.723Z,79.04
2019-04-29T05:49:02.474Z,78.60
2019-04-29T05:51:39.999Z,79.03
2019-04-29T05:54:18.803Z,77.20
2019-04-29T05:56:47.216Z,78.26
2019-04-29T05:59:15.654Z,78.94
2019-04-29T06:01:47.186Z,78.82
2019-04-29T06:04:16.377Z,78.78
2019-04-29T06:06:44.591Z,78.31
2019-04-29T06:09:16.632Z,78.47
2019-04-29T06:11:43.198Z,78.73
2019-04-29T06:14:11.908Z,78.58
2019-04-29T06:16:40.613Z,78.55
2019-04-29T06:19:09.039Z,78.59
2019-04-29T06:21:37.490Z,78.81
2019-04-29T06:24:06.348Z,78.46
2019-04-29T06:26:34.929Z,78.50
2019-04-29T06:29:05.808Z,78.39
2019-04-29T06:31:33.582Z,78.48
2019-04-29T06:34:05.338Z,78.35
2019-04-29T06:36:32.250Z,78.54
2019-04-29T06:39:00.672Z,78.84
2019-04-29T06:41:29.163Z,78.28
2019-04-29T06:44:00.648Z,78.01
2019-04-29T06:46:27.891Z,78.28
2019-04-29T06:49:09.417Z,78.21
2019-04-29T06:51:26.487Z,78.25
2019-04-29T06:53:54.922Z,78.02
2019-04-29T06:56:23.525Z,78.41
2019-04-29T06:58:51.959Z,78.40
2019-04-29T07:01:20.408Z,78.06
2019-04-29T07:03:48.993Z,78.20
2019-04-29T07:06:17.527Z,78.23
2019-04-29T07:08:45.948Z,78.31
2019-04-29T07:11:14.410Z,78.13
2019-04-29T07:13:42.904Z,78.29
2019-04-29T07:16:11.346Z,78.12
2019-04-29T07:18:46.241Z,77.90
2019-04-29T07:21:11.916Z,77.77
2019-04-29T07:23:41.182Z,77.99
2019-04-29T07:26:09.637Z,77.77
2019-04-29T07:28:38.255Z,77.75
2019-04-29T07:31:09.883Z,78.09
2019-04-29T07:33:36.883Z,77.58
2019-04-29T07:36:11.214Z,77.66
2019-04-29T07:38:41.701Z,78.02
2019-04-29T07:41:05.976Z,78.02
2019-04-29T07:43:38.670Z,77.52
2019-04-29T07:46:09.044Z,77.50
2019-04-29T07:48:41.866Z,77.41
2019-04-29T07:51:07.736Z,77.58
2019-04-29T07:53:44.797Z,77.21
2019-04-29T07:56:06.295Z,77.83
2019-04-29T07:58:35.854Z,75.89
2019-04-29T08:01:04.296Z,77.37
2019-04-29T08:03:32.902Z,77.41
2019-04-29T08:06:01.930Z,77.15
2019-04-29T08:08:32.008Z,77.57
2019-04-29T08:11:00.430Z,77.36
2019-04-29T08:13:31.170Z,77.87
2019-04-29T08:15:59.605Z,77.87
2019-04-29T08:18:28.043Z,77.35
2019-04-29T08:20:56.479Z,77.60
2019-04-29T08:23:24.919Z,77.63
2019-04-29T08:25:57.483Z,77.64
2019-04-29T08:28:23.524Z,77.01
2019-04-29T08:30:52.028Z,77.66
2019-04-29T08:33:20.464Z,77.18
2019-04-29T08:35:48.882Z,77.01
2019-04-29T08:38:17.378Z,77.39
2019-04-29T08:40:50.092Z,77.71
2019-04-29T08:43:29.146Z,77.52
2019-04-29T08:46:01.938Z,76.23
2019-04-29T08:48:30.382Z,77.64
2019-04-29T08:50:58.792Z,77.78
2019-04-29T08:53:27.237Z,78.33
2019-04-29T08:55:55.720Z,77.97
2019-04-29T08:58:24.219Z,77.97
2019-04-29T09:00:55.764Z,77.38
2019-04-29T09:03:23.346Z,77.83
2019-04-29T09:06:05.033Z,77.66
2019-04-29T09:08:23.121Z,77.86
2019-04-29T09:10:51.625Z,77.56
2019-04-29T09:13:20.324Z,77.55
2019-04-29T09:15:48.763Z,77.57
2019-04-29T09:18:17.196Z,77.70
2019-04-29T09:20:45.658Z,77.57
2019-04-29T09:23:15.777Z,77.65
2019-04-29T09:26:03.203Z,77.83
2019-04-29T09:28:31.790Z,77.70
2019-04-29T09:31:00.224Z,78.01
2019-04-29T09:33:28.824Z,78.15
2019-04-29T09:35:57.250Z,78.40
2019-04-29T09:38:25.722Z,78.24
2019-04-29T09:40:59.500Z,77.83
2019-04-29T09:43:36.534Z,78.19
2019-04-29T09:46:10.181Z,78.40
2019-04-29T09:48:38.622Z,78.10
2019-04-29T09:51:17.331Z,78.59
2019-04-29T09:53:37.219Z,77.80
2019-04-29T09:56:06.009Z,78.18
2019-04-29T09:58:34.549Z,77.67
2019-04-29T10:01:13.744Z,77.12
2019-04-29T10:04:00.236Z,77.20
2019-04-29T10:06:30.300Z,77.52
2019-04-29T10:08:59.000Z,77.31
2019-04-29T10:11:27.520Z,77.83
2019-04-29T10:13:57.067Z,77.61
2019-04-29T10:16:31.779Z,77.35
2019-04-29T10:19:05.239Z,77.27
2019-04-29T10:21:32.300Z,77.63
2019-04-29T10:24:00.740Z,77.08
2019-04-29T10:26:29.483Z,76.92
2019-04-29T10:28:59.553Z,76.83
2019-04-29T10:31:28.037Z,76.87
2019-04-29T10:33:56.598Z,76.92
2019-04-29T10:36:26.316Z,76.85
2019-04-29T10:38:56.554Z,76.87
2019-04-29T10:41:26.685Z,76.71
2019-04-29T10:44:08.600Z,77.38
2019-04-29T10:46:55.105Z,76.60
2019-04-29T10:49:25.171Z,77.21
2019-04-29T10:51:58.145Z,77.61
2019-04-29T10:54:23.655Z,77.11
2019-04-29T10:56:52.267Z,75.85
2019-04-29T10:59:20.832Z,77.42
2019-04-29T11:02:16.097Z,76.77
2019-04-29T11:04:46.181Z,76.40
2019-04-29T11:07:19.033Z,76.36
2019-04-29T11:09:50.712Z,76.96
2019-04-29T11:12:19.421Z,76.42
2019-04-29T11:14:48.151Z,75.59
2019-04-29T11:17:16.954Z,74.82
2019-04-29T11:19:45.393Z,75.33
2019-04-29T11:22:15.449Z,74.89
2019-04-29T11:24:48.228Z,74.18
2019-04-29T11:27:24.193Z,73.81
2019-04-29T11:29:52.674Z,73.97
2019-04-29T11:32:30.350Z,73.66
2019-04-29T11:35:07.150Z,73.94
2019-04-29T11:37:35.730Z,72.42
2019-04-29T11:40:06.573Z,72.47
2019-04-29T11:42:36.768Z,71.72
2019-04-29T11:45:08.443Z,70.76
2019-04-29T11:47:37.136Z,70.92
2019-04-29T11:50:14.987Z,70.85
2019-04-29T11:52:43.481Z,69.50
2019-04-29T11:55:14.078Z,69.09
2019-04-29T11:57:43.321Z,68.12
2019-04-29T12:00:18.201Z,68.07
2019-04-29T12:02:48.277Z,68.14
2019-04-29T12:05:18.347Z,67.61
2019-04-29T12:07:46.849Z,68.97
2019-04-29T12:10:15.263Z,66.57
2019-04-29T12:12:47.635Z,66.59
2019-04-29T12:15:17.904Z,66.45
2019-04-29T12:17:56.832Z,65.32
2019-04-29T12:20:32.447Z,63.81
2019-04-29T12:23:00.887Z,64.35
2019-04-29T12:25:29.458Z,63.45
2019-04-29T12:28:01.653Z,63.16
2019-04-29T12:30:34.451Z,63.10
2019-04-29T12:33:03.094Z,62.39
2019-04-29T12:35:33.635Z,62.07
2019-04-29T12:38:11.230Z,62.85
2019-04-29T12:40:57.302Z,61.01
2019-04-29T12:43:42.349Z,60.96
2019-04-29T12:46:12.463Z,60.46
2019-04-29T12:48:40.856Z,59.09
2019-04-29T12:51:09.430Z,59.12
2019-04-29T12:53:37.848Z,59.72
2019-04-29T12:56:10.906Z,58.95
2019-04-29T12:58:36.512Z,59.11
2019-04-29T13:01:22.603Z,58.68
2019-04-29T13:03:52.678Z,58.91
2019-04-29T13:06:38.829Z,57.32
2019-04-29T13:08:57.707Z,54.86
2019-04-29T13:11:37.602Z,55.75
2019-04-29T13:14:01.717Z,55.25
2019-04-29T13:16:35.451Z,55.25
2019-04-29T13:19:12.453Z,55.62
2019-04-29T13:21:39.530Z,55.86
2019-04-29T13:24:22.120Z,54.02
2019-04-29T13:26:42.645Z,53.15
2019-04-29T13:29:07.685Z,51.68
2019-04-29T13:33:22.501Z,53.20
2019-04-29T13:34:22.856Z,50.87
2019-04-29T13:36:37.996Z,49.88
2019-04-29T13:39:08.661Z,50.57
2019-04-29T13:41:55.600Z,50.37
2019-04-29T13:44:07.943Z,51.42
2019-04-29T13:46:40.664Z,50.76
2019-04-29T13:49:13.405Z,51.44
2019-04-29T13:51:45.796Z,51.24
2019-04-29T13:54:14.235Z,48.78
2019-04-29T13:56:55.512Z,49.08
2019-04-29T13:59:23.817Z,48.77
2019-04-29T14:02:01.417Z,46.48
2019-04-29T14:04:34.979Z,46.60
2019-04-29T14:07:03.787Z,45.60
2019-04-29T14:09:35.035Z,44.76
2019-04-29T14:12:42.338Z,45.93
2019-04-29T14:14:31.978Z,46.06
2019-04-29T14:17:24.271Z,46.16
2019-04-29T14:19:40.983Z,45.71
2019-04-29T14:21:59.964Z,43.43
2019-04-29T14:24:28.337Z,44.24
2019-04-29T14:26:56.765Z,43.46
2019-04-29T14:29:28.129Z,43.47
2019-04-29T14:31:59.356Z,41.80
2019-04-29T14:34:30.553Z,41.37
2019-04-29T14:37:18.367Z,40.84
2019-04-29T14:39:36.561Z,42.49
2019-04-29T14:42:02.185Z,42.02
2019-04-29T14:44:32.251Z,40.77
2019-04-29T14:47:11.333Z,41.86
2019-04-29T14:49:47.034Z,42.96
2019-04-29T14:52:15.542Z,41.73
2019-04-29T14:54:43.989Z,41.79
2019-04-29T14:57:12.422Z,41.81
2019-04-29T14:59:40.993Z,41.73
2019-04-29T15:02:16.059Z,42.03
2019-04-29T15:04:43.162Z,42.47
2019-04-29T15:07:11.570Z,43.41
2019-04-29T15:09:46.776Z,42.98
2019-04-29T15:12:17.053Z,42.22
2019-04-29T15:14:47.850Z,41.54
2019-04-29T15:17:20.857Z,39.77
2019-04-29T15:20:16.151Z,38.80
2019-04-29T15:22:44.580Z,40.62
2019-04-29T15:25:16.629Z,41.36
2019-04-29T15:27:43.925Z,41.76
2019-04-29T15:30:12.574Z,40.29
2019-04-29T15:32:41.010Z,39.33
2019-04-29T15:35:09.572Z,40.82
2019-04-29T15:37:38.020Z,40.47
2019-04-29T15:40:08.205Z,38.70
2019-04-29T15:42:37.837Z,39.37
2019-04-29T15:45:07.494Z,38.97
2019-04-29T15:47:36.042Z,38.99
2019-04-29T15:50:18.243Z,37.71
2019-04-29T15:52:36.385Z,38.47
2019-04-29T15:55:05.661Z,39.48
2019-04-29T15:57:34.391Z,37.39
2019-04-29T16:00:20.505Z,39.05
2019-04-29T16:02:35.914Z,37.57
2019-04-29T16:05:09.238Z,38.06
2019-04-29T16:10:33.020Z,40.10
2019-04-29T16:13:03.100Z,41.04
2019-04-29T16:15:31.553Z,40.54
2019-04-29T16:18:05.095Z,40.23
2019-04-29T16:20:30.166Z,39.16
2019-04-29T16:23:00.694Z,40.27
2019-04-29T16:25:28.011Z,39.50
2019-04-29T16:27:56.374Z,39.07
2019-04-29T16:30:25.902Z,39.69
2019-04-29T16:32:54.237Z,39.49
2019-04-29T16:35:23.859Z,38.23
2019-04-29T16:37:52.143Z,38.98
2019-04-29T16:40:20.804Z,40.24
2019-04-29T16:43:02.648Z,38.82
2019-04-29T16:45:51.753Z,38.61
2019-04-29T16:48:15.117Z,37.92
2019-04-29T16:50:43.754Z,37.94
2019-04-29T16:53:12.396Z,38.23
2019-04-29T16:55:43.053Z,37.15
2019-04-29T16:58:17.705Z,37.23
2019-04-29T17:00:46.703Z,36.75
2019-04-29T17:03:10.916Z,37.81
2019-04-29T17:05:39.365Z,37.85
2019-04-29T17:08:09.482Z,36.39
2019-04-29T17:10:38.920Z,37.07
2019-04-29T17:13:09.103Z,37.63
2019-04-29T17:15:38.150Z,38.77
2019-04-29T17:18:07.134Z,38.52
2019-04-29T17:20:35.549Z,37.90
2019-04-29T17:23:03.969Z,37.61
2019-04-29T17:25:32.419Z,37.73
2019-04-29T17:28:02.489Z,37.75
2019-04-29T17:30:32.675Z,37.46
2019-04-29T17:33:27.742Z,37.94
2019-04-29T17:35:16.714Z,40.21
2019-04-29T17:35:53.117Z,37.71
2019-04-29T17:38:20.927Z,37.02
2019-04-29T17:40:51.241Z,38.55
2019-04-29T17:43:29.650Z,36.91
2019-04-29T17:46:15.614Z,37.06
2019-04-29T17:49:02.053Z,37.47
2019-04-29T17:51:31.688Z,37.90
2019-04-29T17:54:01.800Z,37.24
2019-04-29T17:56:45.070Z,37.41
2019-04-29T17:59:29.542Z,39.52
2019-04-29T18:02:20.781Z,39.25
2019-04-29T18:05:01.912Z,38.80
2019-04-29T18:07:31.980Z,39.03
2019-04-29T18:10:05.132Z,38.38
2019-04-29T18:12:41.071Z,40.56
2019-04-29T18:15:06.008Z,41.20
2019-04-29T18:17:36.251Z,40.83
2019-04-29T18:20:13.606Z,39.75
2019-04-29T18:22:46.764Z,39.98
2019-04-29T18:25:36.588Z,42.32
2019-04-29T18:28:05.216Z,42.32
2019-04-29T18:30:36.497Z,42.39
2019-04-29T18:33:05.380Z,43.23
2019-04-29T18:35:35.441Z,43.66
2019-04-29T18:38:03.435Z,43.48
2019-04-29T18:40:35.488Z,42.79
2019-04-29T18:43:01.957Z,43.47
2019-04-29T18:45:34.360Z,44.58
2019-04-29T18:48:00.354Z,45.12
2019-04-29T18:50:29.656Z,44.72
2019-04-29T18:52:59.164Z,46.05
2019-04-29T18:55:28.184Z,44.09
2019-04-29T18:57:58.461Z,44.01
2019-04-29T19:00:26.940Z,45.10
2019-04-29T19:02:58.475Z,44.62
2019-04-29T19:05:32.282Z,45.47
2019-04-29T19:08:11.294Z,43.51
2019-04-29T19:10:34.427Z,44.43
2019-04-29T19:13:07.103Z,43.70
2019-04-29T19:15:29.995Z,43.87
2019-04-29T19:18:01.436Z,43.67
2019-04-29T19:20:28.600Z,42.70
2019-04-29T19:23:05.676Z,41.95
2019-04-29T19:25:27.182Z,42.83
2019-04-29T19:27:55.696Z,42.92
2019-04-29T19:30:27.019Z,43.92
2019-04-29T19:33:00.519Z,44.64
2019-04-29T19:35:25.290Z,45.50
2019-04-29T19:37:53.957Z,44.69
2019-04-29T19:40:22.447Z,45.52
2019-04-29T19:42:50.883Z,44.61
2019-04-29T19:45:19.308Z,45.43
2019-04-29T19:47:53.034Z,45.98
2019-04-29T19:50:19.688Z,45.74
2019-04-29T19:52:48.513Z,46.15
2019-04-29T19:55:17.168Z,46.99
2019-04-29T19:57:48.085Z,46.28
2019-04-29T20:00:17.272Z,46.93
2019-04-29T20:02:49.737Z,46.28
2019-04-29T20:05:23.841Z,48.71
2019-04-29T20:07:51.357Z,49.29
2019-04-29T20:10:21.335Z,51.25
2019-04-29T20:12:53.251Z,50.67
2019-04-29T20:15:20.982Z,50.79
2019-04-29T20:18:07.208Z,52.67
2019-04-29T20:20:40.873Z,52.54
2019-04-29T20:23:09.550Z,51.78
2019-04-29T20:25:38.929Z,52.41
2019-04-29T20:28:12.668Z,52.97
2019-04-29T20:30:37.756Z,54.47
2019-04-29T20:33:11.034Z,54.46
2019-04-29T20:35:40.430Z,56.49
2019-04-29T20:38:06.771Z,55.58
2019-04-29T20:40:39.069Z,55.63
2019-04-29T20:43:08.374Z,56.78
2019-04-29T20:45:36.327Z,57.97
2019-04-29T20:48:06.404Z,58.65
2019-04-29T20:50:35.415Z,59.43
2019-04-29T20:53:09.312Z,55.07
2019-04-29T20:55:38.660Z,59.34
2019-04-29T20:58:07.451Z,60.00
2019-04-29T21:00:38.142Z,60.36
2019-04-29T21:03:09.446Z,60.04
2019-04-29T21:05:47.575Z,60.46
2019-04-29T21:08:14.533Z,56.51
2019-04-29T21:10:37.864Z,58.75
2019-04-29T21:13:25.770Z,58.68
2019-04-29T21:16:01.670Z,61.71
2019-04-29T21:18:30.094Z,63.21
2019-04-29T21:20:59.673Z,64.08
2019-04-29T21:23:31.618Z,63.59
2019-04-29T21:26:00.435Z,63.59
2019-04-29T21:28:31.488Z,64.36
2019-04-29T21:30:59.485Z,63.78
2019-04-29T21:33:27.911Z,65.06
2019-04-29T21:36:12.985Z,65.28
2019-04-29T21:39:01.808Z,65.05
2019-04-29T21:41:30.046Z,66.08
2019-04-29T21:43:59.260Z,65.51
2019-04-29T21:46:29.513Z,65.56
2019-04-29T21:48:58.067Z,65.73
2019-04-29T21:51:26.496Z,65.94
2019-04-29T21:53:56.006Z,66.48
2019-04-29T21:56:25.693Z,67.66
2019-04-29T21:58:53.907Z,62.83
2019-04-29T22:01:22.854Z,66.07
2019-04-29T22:03:51.278Z,68.04
2019-04-29T22:06:19.733Z,67.70
2019-04-29T22:08:48.160Z,67.70
2019-04-29T22:11:17.497Z,67.60
2019-04-29T22:13:46.349Z,66.60
2019-04-29T22:16:15.765Z,67.75
2019-04-29T22:18:51.793Z,68.50
2019-04-29T22:21:21.403Z,68.64
2019-04-29T22:23:50.966Z,64.24
2019-04-29T22:26:16.316Z,68.22
2019-04-29T22:28:47.431Z,67.81
2019-04-29T22:31:18.098Z,68.52
2019-04-29T22:33:48.774Z,69.27
2019-04-29T22:36:18.071Z,68.92
2019-04-29T22:38:48.701Z,69.50
2019-04-29T22:41:21.061Z,69.50
2019-04-29T22:43:54.637Z,69.83
2019-04-29T22:46:25.549Z,69.65
2019-04-29T22:48:55.702Z,69.77
2019-04-29T22:51:23.395Z,69.48
2019-04-29T22:53:51.759Z,65.69
2019-04-29T22:56:20.177Z,69.88
2019-04-29T22:58:48.636Z,69.07
2019-04-29T23:01:17.840Z,70.21
2019-04-29T23:03:47.309Z,70.72
2019-04-29T23:06:15.835Z,69.17
2019-04-29T23:08:45.006Z,69.40
2019-04-29T23:11:13.486Z,69.24
2019-04-29T23:13:41.919Z,70.09
2019-04-29T23:16:10.636Z,70.50
2019-04-29T23:18:43.514Z,70.35
2019-04-29T23:21:10.938Z,70.72
2019-04-29T23:23:45.413Z,70.58
2019-04-29T23:26:14.826Z,71.13
2019-04-29T23:28:45.653Z,71.33
2019-04-29T23:31:13.839Z,67.47
2019-04-29T23:33:42.292Z,70.39
2019-04-29T23:36:14.086Z,71.71
2019-04-29T23:38:42.788Z,71.87
2019-04-29T23:41:10.687Z,71.60
2019-04-29T23:43:39.049Z,67.99
2019-04-29T23:46:07.492Z,71.69
2019-04-29T23:48:39.452Z,72.06
2019-04-29T23:51:06.627Z,72.19
2019-04-29T23:53:35.229Z,72.41
2019-04-29T23:56:05.564Z,72.38
2019-04-29T23:58:38.748Z,72.31
